sensor_id;sensor_type;location;lat;lon;timestamp;pressure;altitude;pressure_sealevel;temperature;humidity
69848;BME280;57143;55.940;37.496;2023-02-01T00:01:05;96511.47;;;0.47;100.00
69848;BME280;57143;55.940;37.496;2023-02-01T00:03:32;96539.16;;;0.81;100.00
69848;BME280;57143;55.940;37.496;2023-02-01T00:06:00;96533.72;;;0.76;100.00
69848;BME280;57143;55.940;37.496;2023-02-01T00:08:27;96530.13;;;0.70;100.00
69848;BME280;57143;55.940;37.496;2023-02-01T00:11:00;96520.25;;;0.71;100.00
69848;BME280;57143;55.940;37.496;2023-02-01T00:13:28;96503.72;;;0.69;100.00
69848;BME280;57143;55.940;37.496;2023-02-01T00:16:02;96464.44;;;0.64;100.00
69848;BME280;57143;55.940;37.496;2023-02-01T00:18:30;96468.84;;;0.70;100.00
69848;BME280;57143;55.940;37.496;2023-02-01T00:20:57;96409.44;;;0.47;100.00
69848;BME280;57143;55.940;37.496;2023-02-01T00:23:25;96433.75;;;0.50;100.00
69848;BME280;57143;55.940;37.496;2023-02-01T00:25:53;96353.03;;;0.38;100.00
69848;BME280;57143;55.940;37.496;2023-02-01T00:28:21;96380.03;;;0.81;100.00
69848;BME280;57143;55.940;37.496;2023-02-01T00:30:56;96356.34;;;0.68;100.00
69848;BME280;57143;55.940;37.496;2023-02-01T00:33:23;96326.34;;;0.61;100.00
69848;BME280;57143;55.940;37.496;2023-02-01T00:35:50;96337.38;;;0.81;100.00
69848;BME280;57143;55.940;37.496;2023-02-01T00:38:17;96322.44;;;0.80;100.00
69848;BME280;57143;55.940;37.496;2023-02-01T00:40:44;96312.28;;;0.77;100.00
69848;BME280;57143;55.940;37.496;2023-02-01T00:43:11;96288.41;;;0.71;100.00
69848;BME280;57143;55.940;37.496;2023-02-01T00:45:40;96259.81;;;0.66;100.00
69848;BME280;57143;55.940;37.496;2023-02-01T00:48:07;96250.69;;;0.62;100.00
69848;BME280;57143;55.940;37.496;2023-02-01T00:50:34;96221.94;;;0.64;100.00
69848;BME280;57143;55.940;37.496;2023-02-01T00:53:01;96247.97;;;0.74;100.00
69848;BME280;57143;55.940;37.496;2023-02-01T00:55:28;96213.91;;;0.76;100.00
69848;BME280;57143;55.940;37.496;2023-02-01T00:57:55;96198.47;;;0.78;100.00
69848;BME280;57143;55.940;37.496;2023-02-01T01:00:23;96175.03;;;0.80;100.00
69848;BME280;57143;55.940;37.496;2023-02-01T01:02:51;96143.00;;;0.75;100.00
69848;BME280;57143;55.940;37.496;2023-02-01T01:05:18;96122.47;;;0.75;100.00
69848;BME280;57143;55.940;37.496;2023-02-01T01:07:46;96112.78;;;0.86;100.00
69848;BME280;57143;55.940;37.496;2023-02-01T01:10:13;96112.47;;;0.82;100.00
69848;BME280;57143;55.940;37.496;2023-02-01T01:12:40;96095.75;;;0.70;100.00
69848;BME280;57143;55.940;37.496;2023-02-01T01:15:08;96098.81;;;0.79;100.00
69848;BME280;57143;55.940;37.496;2023-02-01T01:17:35;96105.03;;;0.84;100.00
69848;BME280;57143;55.940;37.496;2023-02-01T01:20:04;96095.16;;;0.85;100.00
69848;BME280;57143;55.940;37.496;2023-02-01T01:22:31;96100.03;;;0.88;100.00
69848;BME280;57143;55.940;37.496;2023-02-01T01:24:58;96086.44;;;0.89;100.00
69848;BME280;57143;55.940;37.496;2023-02-01T01:27:25;96077.56;;;0.84;100.00
69848;BME280;57143;55.940;37.496;2023-02-01T01:29:52;96091.47;;;0.86;100.00
69848;BME280;57143;55.940;37.496;2023-02-01T01:32:19;96092.19;;;0.81;100.00
69848;BME280;57143;55.940;37.496;2023-02-01T01:34:47;96095.22;;;0.90;100.00
69848;BME280;57143;55.940;37.496;2023-02-01T01:37:15;96095.97;;;0.85;100.00
69848;BME280;57143;55.940;37.496;2023-02-01T01:39:42;96103.47;;;0.88;100.00
69848;BME280;57143;55.940;37.496;2023-02-01T01:42:11;96098.81;;;0.79;100.00
69848;BME280;57143;55.940;37.496;2023-02-01T01:44:58;96097.75;;;0.80;100.00
69848;BME280;57143;55.940;37.496;2023-02-01T01:47:26;96127.63;;;0.82;100.00
69848;BME280;57143;55.940;37.496;2023-02-01T01:49:56;96127.72;;;0.87;100.00
69848;BME280;57143;55.940;37.496;2023-02-01T01:52:24;96129.34;;;0.88;100.00
69848;BME280;57143;55.940;37.496;2023-02-01T01:54:53;96133.63;;;0.89;100.00
69848;BME280;57143;55.940;37.496;2023-02-01T01:57:24;96143.72;;;0.87;100.00
69848;BME280;57143;55.940;37.496;2023-02-01T01:59:56;96144.34;;;0.94;100.00
69848;BME280;57143;55.940;37.496;2023-02-01T02:02:26;96151.53;;;0.93;100.00
69848;BME280;57143;55.940;37.496;2023-02-01T02:04:53;96158.09;;;0.86;100.00
69848;BME280;57143;55.940;37.496;2023-02-01T02:07:25;96134.03;;;0.64;100.00
69848;BME280;57143;55.940;37.496;2023-02-01T02:09:53;96162.78;;;0.79;100.00
69848;BME280;57143;55.940;37.496;2023-02-01T02:12:21;96164.88;;;0.77;100.00
69848;BME280;57143;55.940;37.496;2023-02-01T02:14:48;96152.13;;;0.79;100.00
69848;BME280;57143;55.940;37.496;2023-02-01T02:17:27;96108.84;;;0.72;100.00
69848;BME280;57143;55.940;37.496;2023-02-01T02:20:39;96115.84;;;0.78;100.00
69848;BME280;57143;55.940;37.496;2023-02-01T02:23:37;96109.22;;;0.80;100.00
69848;BME280;57143;55.940;37.496;2023-02-01T02:26:39;96100.16;;;0.81;100.00
69848;BME280;57143;55.940;37.496;2023-02-01T02:29:36;96087.09;;;0.80;100.00
69848;BME280;57143;55.940;37.496;2023-02-01T02:35:24;96089.69;;;0.91;100.00
69848;BME280;57143;55.940;37.496;2023-02-01T02:37:56;96092.97;;;0.98;100.00
69848;BME280;57143;55.940;37.496;2023-02-01T02:40:32;96110.69;;;0.88;100.00
69848;BME280;57143;55.940;37.496;2023-02-01T02:43:06;96118.00;;;0.97;100.00
69848;BME280;57143;55.940;37.496;2023-02-01T02:45:58;96129.97;;;0.95;100.00
69848;BME280;57143;55.940;37.496;2023-02-01T02:48:46;96133.13;;;0.92;100.00
69848;BME280;57143;55.940;37.496;2023-02-01T02:51:22;96159.84;;;0.97;100.00
69848;BME280;57143;55.940;37.496;2023-02-01T02:54:11;96189.34;;;0.90;100.00
69848;BME280;57143;55.940;37.496;2023-02-01T02:56:58;96202.19;;;0.93;100.00
69848;BME280;57143;55.940;37.496;2023-02-01T02:59:45;96241.91;;;0.78;100.00
69848;BME280;57143;55.940;37.496;2023-02-01T03:02:32;96221.75;;;0.82;100.00
69848;BME280;57143;55.940;37.496;2023-02-01T03:05:17;96251.47;;;0.91;100.00
69848;BME280;57143;55.940;37.496;2023-02-01T03:07:57;96257.28;;;0.88;100.00
69848;BME280;57143;55.940;37.496;2023-02-01T03:10:35;96259.31;;;0.81;100.00
69848;BME280;57143;55.940;37.496;2023-02-01T03:13:06;96284.97;;;0.87;100.00
69848;BME280;57143;55.940;37.496;2023-02-01T03:15:38;96306.16;;;0.93;100.00
69848;BME280;57143;55.940;37.496;2023-02-01T03:18:11;96314.06;;;0.88;100.00
69848;BME280;57143;55.940;37.496;2023-02-01T03:20:44;96330.06;;;0.88;100.00
69848;BME280;57143;55.940;37.496;2023-02-01T03:23:16;96341.78;;;0.87;100.00
69848;BME280;57143;55.940;37.496;2023-02-01T03:25:47;96357.03;;;0.92;100.00
69848;BME280;57143;55.940;37.496;2023-02-01T03:28:16;96376.66;;;0.86;100.00
69848;BME280;57143;55.940;37.496;2023-02-01T03:30:48;96367.53;;;0.82;100.00
69848;BME280;57143;55.940;37.496;2023-02-01T03:33:20;96385.25;;;0.88;100.00
69848;BME280;57143;55.940;37.496;2023-02-01T03:35:52;96407.59;;;0.87;100.00
69848;BME280;57143;55.940;37.496;2023-02-01T03:38:24;96390.44;;;0.83;100.00
69848;BME280;57143;55.940;37.496;2023-02-01T03:40:57;96413.50;;;0.89;100.00
69848;BME280;57143;55.940;37.496;2023-02-01T03:43:27;96407.41;;;0.77;100.00
69848;BME280;57143;55.940;37.496;2023-02-01T03:46:01;96423.94;;;0.90;100.00
69848;BME280;57143;55.940;37.496;2023-02-01T03:48:31;96444.78;;;0.93;100.00
69848;BME280;57143;55.940;37.496;2023-02-01T03:51:00;96437.59;;;0.94;100.00
69848;BME280;57143;55.940;37.496;2023-02-01T03:53:32;96412.44;;;0.62;100.00
69848;BME280;57143;55.940;37.496;2023-02-01T03:56:02;96478.31;;;0.89;100.00
69848;BME280;57143;55.940;37.496;2023-02-01T03:58:30;96489.06;;;0.94;100.00
69848;BME280;57143;55.940;37.496;2023-02-01T04:00:58;96502.28;;;0.89;100.00
69848;BME280;57143;55.940;37.496;2023-02-01T04:03:26;96504.38;;;0.87;100.00
69848;BME280;57143;55.940;37.496;2023-02-01T04:05:54;96491.53;;;0.84;100.00
69848;BME280;57143;55.940;37.496;2023-02-01T04:08:22;96525.34;;;0.95;100.00
69848;BME280;57143;55.940;37.496;2023-02-01T04:10:51;96526.63;;;0.81;100.00
69848;BME280;57143;55.940;37.496;2023-02-01T04:13:18;96541.81;;;0.92;100.00
69848;BME280;57143;55.940;37.496;2023-02-01T04:15:46;96544.00;;;0.95;100.00
69848;BME280;57143;55.940;37.496;2023-02-01T04:18:15;96563.59;;;1.01;100.00
69848;BME280;57143;55.940;37.496;2023-02-01T04:20:43;96540.78;;;0.82;100.00
69848;BME280;57143;55.940;37.496;2023-02-01T04:23:11;96577.16;;;0.99;100.00
69848;BME280;57143;55.940;37.496;2023-02-01T04:25:38;96587.72;;;0.94;100.00
69848;BME280;57143;55.940;37.496;2023-02-01T04:28:06;96594.66;;;0.95;100.00
69848;BME280;57143;55.940;37.496;2023-02-01T04:30:34;96593.97;;;1.00;100.00
69848;BME280;57143;55.940;37.496;2023-02-01T04:33:01;96597.78;;;0.92;100.00
69848;BME280;57143;55.940;37.496;2023-02-01T04:35:32;96594.53;;;0.90;100.00
69848;BME280;57143;55.940;37.496;2023-02-01T04:37:59;96610.06;;;0.93;100.00
69848;BME280;57143;55.940;37.496;2023-02-01T04:40:26;96605.56;;;0.94;100.00
69848;BME280;57143;55.940;37.496;2023-02-01T04:42:53;96614.16;;;0.84;100.00
69848;BME280;57143;55.940;37.496;2023-02-01T04:45:21;96618.88;;;0.82;100.00
69848;BME280;57143;55.940;37.496;2023-02-01T04:47:48;96613.31;;;0.84;100.00
69848;BME280;57143;55.940;37.496;2023-02-01T04:50:16;96599.88;;;0.79;100.00
69848;BME280;57143;55.940;37.496;2023-02-01T04:52:43;96574.72;;;0.75;100.00
69848;BME280;57143;55.940;37.496;2023-02-01T04:55:10;96601.28;;;0.93;100.00
69848;BME280;57143;55.940;37.496;2023-02-01T04:57:39;96603.72;;;0.94;100.00
69848;BME280;57143;55.940;37.496;2023-02-01T05:00:08;96601.84;;;0.95;100.00
69848;BME280;57143;55.940;37.496;2023-02-01T05:02:36;96579.84;;;0.65;100.00
69848;BME280;57143;55.940;37.496;2023-02-01T05:05:05;96619.25;;;0.86;100.00
69848;BME280;57143;55.940;37.496;2023-02-01T05:07:32;96611.94;;;0.93;100.00
69848;BME280;57143;55.940;37.496;2023-02-01T05:09:59;96615.28;;;0.88;100.00
69848;BME280;57143;55.940;37.496;2023-02-01T05:12:26;96613.78;;;0.92;100.00
69848;BME280;57143;55.940;37.496;2023-02-01T05:15:11;96609.59;;;0.85;100.00
69848;BME280;57143;55.940;37.496;2023-02-01T05:17:39;96620.19;;;0.91;100.00
69848;BME280;57143;55.940;37.496;2023-02-01T05:20:08;96624.91;;;0.89;100.00
69848;BME280;57143;55.940;37.496;2023-02-01T05:22:35;96618.53;;;0.90;100.00
69848;BME280;57143;55.940;37.496;2023-02-01T05:25:03;96630.47;;;0.99;100.00
69848;BME280;57143;55.940;37.496;2023-02-01T05:27:30;96630.94;;;0.96;100.00
69848;BME280;57143;55.940;37.496;2023-02-01T05:29:58;96627.59;;;1.01;100.00
69848;BME280;57143;55.940;37.496;2023-02-01T05:32:25;96633.84;;;1.06;100.00
69848;BME280;57143;55.940;37.496;2023-02-01T05:34:53;96628.28;;;0.96;100.00
69848;BME280;57143;55.940;37.496;2023-02-01T05:37:20;96637.19;;;1.02;100.00
69848;BME280;57143;55.940;37.496;2023-02-01T05:39:47;96649.16;;;0.99;100.00
69848;BME280;57143;55.940;37.496;2023-02-01T05:42:14;96642.53;;;1.02;100.00
69848;BME280;57143;55.940;37.496;2023-02-01T05:44:42;96646.00;;;1.02;100.00
69848;BME280;57143;55.940;37.496;2023-02-01T05:47:09;96653.78;;;1.04;100.00
69848;BME280;57143;55.940;37.496;2023-02-01T05:49:36;96636.84;;;1.10;100.00
69848;BME280;57143;55.940;37.496;2023-02-01T05:52:05;96646.13;;;1.07;100.00
69848;BME280;57143;55.940;37.496;2023-02-01T05:54:32;96653.66;;;0.99;100.00
69848;BME280;57143;55.940;37.496;2023-02-01T05:56:59;96639.66;;;1.03;100.00
69848;BME280;57143;55.940;37.496;2023-02-01T05:59:26;96644.41;;;1.01;100.00
69848;BME280;57143;55.940;37.496;2023-02-01T06:01:53;96635.34;;;1.02;100.00
69848;BME280;57143;55.940;37.496;2023-02-01T06:04:20;96645.34;;;1.07;100.00
69848;BME280;57143;55.940;37.496;2023-02-01T06:06:47;96640.09;;;1.12;100.00
69848;BME280;57143;55.940;37.496;2023-02-01T06:09:17;96635.81;;;1.11;100.00
69848;BME280;57143;55.940;37.496;2023-02-01T06:11:44;96638.69;;;1.09;100.00
69848;BME280;57143;55.940;37.496;2023-02-01T06:14:11;96624.53;;;1.09;100.00
69848;BME280;57143;55.940;37.496;2023-02-01T06:16:39;96641.69;;;1.25;100.00
69848;BME280;57143;55.940;37.496;2023-02-01T06:19:06;96637.53;;;1.29;100.00
69848;BME280;57143;55.940;37.496;2023-02-01T06:21:35;96642.75;;;1.24;100.00
69848;BME280;57143;55.940;37.496;2023-02-01T06:24:03;96640.31;;;1.22;100.00
69848;BME280;57143;55.940;37.496;2023-02-01T06:26:31;96639.75;;;1.20;100.00
69848;BME280;57143;55.940;37.496;2023-02-01T06:28:59;96627.34;;;1.26;100.00
69848;BME280;57143;55.940;37.496;2023-02-01T06:31:26;96632.09;;;1.24;100.00
69848;BME280;57143;55.940;37.496;2023-02-01T06:33:53;96620.34;;;1.25;100.00
69848;BME280;57143;55.940;37.496;2023-02-01T06:36:20;96608.78;;;1.19;100.00
69848;BME280;57143;55.940;37.496;2023-02-01T06:38:48;96615.03;;;1.25;100.00
69848;BME280;57143;55.940;37.496;2023-02-01T06:41:15;96611.91;;;1.28;100.00
69848;BME280;57143;55.940;37.496;2023-02-01T06:43:44;96604.94;;;1.27;100.00
69848;BME280;57143;55.940;37.496;2023-02-01T06:46:13;96603.78;;;1.23;100.00
69848;BME280;57143;55.940;37.496;2023-02-01T06:48:40;96607.03;;;1.25;100.00
69848;BME280;57143;55.940;37.496;2023-02-01T06:51:18;96617.72;;;1.13;100.00
69848;BME280;57143;55.940;37.496;2023-02-01T06:53:45;96610.75;;;1.24;100.00
69848;BME280;57143;55.940;37.496;2023-02-01T06:56:12;96613.91;;;1.21;100.00
69848;BME280;57143;55.940;37.496;2023-02-01T06:58:39;96626.78;;;1.12;100.00
69848;BME280;57143;55.940;37.496;2023-02-01T07:01:09;96620.84;;;1.10;100.00
69848;BME280;57143;55.940;37.496;2023-02-01T07:03:36;96627.81;;;1.11;100.00
69848;BME280;57143;55.940;37.496;2023-02-01T07:06:04;96621.56;;;1.17;100.00
69848;BME280;57143;55.940;37.496;2023-02-01T07:08:34;96618.41;;;1.20;100.00
69848;BME280;57143;55.940;37.496;2023-02-01T07:11:02;96623.25;;;1.23;100.00
69848;BME280;57143;55.940;37.496;2023-02-01T07:13:29;96623.84;;;1.25;100.00
69848;BME280;57143;55.940;37.496;2023-02-01T07:16:00;96627.47;;;1.19;100.00
69848;BME280;57143;55.940;37.496;2023-02-01T07:18:29;96627.22;;;1.21;100.00
69848;BME280;57143;55.940;37.496;2023-02-01T07:20:57;96645.78;;;1.15;100.00
69848;BME280;57143;55.940;37.496;2023-02-01T07:23:25;96637.91;;;1.21;100.00
69848;BME280;57143;55.940;37.496;2023-02-01T07:25:54;96627.34;;;1.26;100.00
69848;BME280;57143;55.940;37.496;2023-02-01T07:28:21;96645.53;;;1.29;100.00
69848;BME280;57143;55.940;37.496;2023-02-01T07:30:48;96649.25;;;1.28;100.00
69848;BME280;57143;55.940;37.496;2023-02-01T07:33:19;96643.34;;;1.26;100.00
69848;BME280;57143;55.940;37.496;2023-02-01T07:35:48;96662.94;;;1.31;100.00
69848;BME280;57143;55.940;37.496;2023-02-01T07:38:16;96666.28;;;1.38;100.00
69848;BME280;57143;55.940;37.496;2023-02-01T07:40:45;96689.63;;;1.31;100.00
69848;BME280;57143;55.940;37.496;2023-02-01T07:43:12;96681.72;;;1.36;100.00
69848;BME280;57143;55.940;37.496;2023-02-01T07:45:39;96690.06;;;1.40;100.00
69848;BME280;57143;55.940;37.496;2023-02-01T07:48:06;96693.06;;;1.32;100.00
69848;BME280;57143;55.940;37.496;2023-02-01T07:50:33;96713.16;;;1.34;100.00
69848;BME280;57143;55.940;37.496;2023-02-01T07:53:02;96727.28;;;1.23;100.00
69848;BME280;57143;55.940;37.496;2023-02-01T07:55:29;96739.25;;;1.21;100.00
69848;BME280;57143;55.940;37.496;2023-02-01T07:57:59;96738.78;;;1.24;100.00
69848;BME280;57143;55.940;37.496;2023-02-01T08:00:26;96746.44;;;1.20;100.00
69848;BME280;57143;55.940;37.496;2023-02-01T08:03:10;96742.63;;;1.28;100.00
69848;BME280;57143;55.940;37.496;2023-02-01T08:05:37;96722.31;;;1.15;100.00
69848;BME280;57143;55.940;37.496;2023-02-01T08:08:06;96757.00;;;1.27;100.00
69848;BME280;57143;55.940;37.496;2023-02-01T08:10:33;96772.75;;;1.28;100.00
69848;BME280;57143;55.940;37.496;2023-02-01T08:13:01;96749.56;;;1.40;100.00
69848;BME280;57143;55.940;37.496;2023-02-01T08:15:29;96745.63;;;1.19;100.00
69848;BME280;57143;55.940;37.496;2023-02-01T08:17:56;96759.53;;;1.33;100.00
69848;BME280;57143;55.940;37.496;2023-02-01T08:20:24;96768.47;;;1.27;100.00
69848;BME280;57143;55.940;37.496;2023-02-01T08:22:52;96774.28;;;1.36;100.00
69848;BME280;57143;55.940;37.496;2023-02-01T08:25:22;96784.59;;;1.44;100.00
69848;BME280;57143;55.940;37.496;2023-02-01T08:27:49;96785.78;;;1.48;100.00
69848;BME280;57143;55.940;37.496;2023-02-01T08:30:17;96794.50;;;1.43;100.00
69848;BME280;57143;55.940;37.496;2023-02-01T08:32:44;96795.63;;;1.47;100.00
69848;BME280;57143;55.940;37.496;2023-02-01T08:35:11;96816.63;;;1.44;100.00
69848;BME280;57143;55.940;37.496;2023-02-01T08:37:38;96838.78;;;1.44;100.00
69848;BME280;57143;55.940;37.496;2023-02-01T08:40:07;96857.81;;;1.36;100.00
69848;BME280;57143;55.940;37.496;2023-02-01T08:42:35;96869.41;;;1.42;100.00
69848;BME280;57143;55.940;37.496;2023-02-01T08:45:18;96874.38;;;1.38;100.00
69848;BME280;57143;55.940;37.496;2023-02-01T08:47:45;96889.91;;;1.30;100.00
69848;BME280;57143;55.940;37.496;2023-02-01T08:50:13;96884.84;;;1.40;100.00
69848;BME280;57143;55.940;37.496;2023-02-01T08:52:41;96895.19;;;1.48;100.00
69848;BME280;57143;55.940;37.496;2023-02-01T08:55:08;96908.31;;;1.49;100.00
69848;BME280;57143;55.940;37.496;2023-02-01T08:57:37;96912.50;;;1.57;100.00
69848;BME280;57143;55.940;37.496;2023-02-01T09:00:07;96909.00;;;1.56;100.00
69848;BME280;57143;55.940;37.496;2023-02-01T09:02:35;96925.97;;;1.62;100.00
69848;BME280;57143;55.940;37.496;2023-02-01T09:05:03;96929.22;;;1.64;100.00
69848;BME280;57143;55.940;37.496;2023-02-01T09:07:30;96929.00;;;1.65;100.00
69848;BME280;57143;55.940;37.496;2023-02-01T09:09:57;96952.41;;;1.52;100.00
69848;BME280;57143;55.940;37.496;2023-02-01T09:12:27;96963.44;;;1.55;100.00
69848;BME280;57143;55.940;37.496;2023-02-01T09:14:55;96963.56;;;1.60;100.00
69848;BME280;57143;55.940;37.496;2023-02-01T09:17:25;96976.09;;;1.60;100.00
69848;BME280;57143;55.940;37.496;2023-02-01T09:19:52;96979.28;;;1.80;100.00
69848;BME280;57143;55.940;37.496;2023-02-01T09:22:19;97000.75;;;1.73;100.00
69848;BME280;57143;55.940;37.496;2023-02-01T09:24:46;97002.03;;;1.71;100.00
69848;BME280;57143;55.940;37.496;2023-02-01T09:27:13;97007.56;;;1.69;100.00
69848;BME280;57143;55.940;37.496;2023-02-01T09:29:41;97020.41;;;1.61;100.00
69848;BME280;57143;55.940;37.496;2023-02-01T09:32:09;97034.00;;;1.59;100.00
69848;BME280;57143;55.940;37.496;2023-02-01T09:34:36;97031.09;;;1.61;100.00
69848;BME280;57143;55.940;37.496;2023-02-01T09:37:03;97018.78;;;1.30;100.00
69848;BME280;57143;55.940;37.496;2023-02-01T09:39:31;97046.19;;;1.55;100.00
69848;BME280;57143;55.940;37.496;2023-02-01T09:42:07;97047.84;;;1.68;100.00
69848;BME280;57143;55.940;37.496;2023-02-01T09:44:57;97046.00;;;1.68;100.00
69848;BME280;57143;55.940;37.496;2023-02-01T09:47:27;97080.19;;;1.60;100.00
69848;BME280;57143;55.940;37.496;2023-02-01T09:50:00;97076.69;;;1.59;100.00
69848;BME280;57143;55.940;37.496;2023-02-01T09:52:34;97074.75;;;1.66;100.00
69848;BME280;57143;55.940;37.496;2023-02-01T09:55:05;97087.38;;;1.77;100.00
69848;BME280;57143;55.940;37.496;2023-02-01T09:57:48;97075.22;;;1.93;100.00
69848;BME280;57143;55.940;37.496;2023-02-01T10:00:19;97083.25;;;1.93;100.00
69848;BME280;57143;55.940;37.496;2023-02-01T10:02:54;97089.06;;;2.01;100.00
69848;BME280;57143;55.940;37.496;2023-02-01T10:05:42;97104.28;;;2.01;100.00
69848;BME280;57143;55.940;37.496;2023-02-01T10:08:18;97127.09;;;1.85;100.00
69848;BME280;57143;55.940;37.496;2023-02-01T10:10:49;97128.81;;;1.80;100.00
69848;BME280;57143;55.940;37.496;2023-02-01T10:13:37;97160.97;;;1.85;100.00
69848;BME280;57143;55.940;37.496;2023-02-01T10:16:17;97166.91;;;1.87;100.00
69848;BME280;57143;55.940;37.496;2023-02-01T10:19:24;97175.38;;;1.84;100.00
69848;BME280;57143;55.940;37.496;2023-02-01T10:21:59;97170.03;;;1.84;100.00
69848;BME280;57143;55.940;37.496;2023-02-01T10:24:41;97184.66;;;1.99;100.00
69848;BME280;57143;55.940;37.496;2023-02-01T10:27:17;97186.34;;;1.94;100.00
69848;BME280;57143;55.940;37.496;2023-02-01T10:29:49;97188.19;;;1.93;100.00
69848;BME280;57143;55.940;37.496;2023-02-01T10:32:23;97248.59;;;1.94;100.00
69848;BME280;57143;55.940;37.496;2023-02-01T10:34:57;97234.44;;;1.94;100.00
69848;BME280;57143;55.940;37.496;2023-02-01T10:37:27;97255.41;;;1.90;100.00
69848;BME280;57143;55.940;37.496;2023-02-01T10:39:56;97257.19;;;1.78;100.00
69848;BME280;57143;55.940;37.496;2023-02-01T10:42:26;97275.97;;;1.72;100.00
69848;BME280;57143;55.940;37.496;2023-02-01T10:44:55;97274.91;;;1.73;100.00
69848;BME280;57143;55.940;37.496;2023-02-01T10:47:23;97274.75;;;1.68;100.00
69848;BME280;57143;55.940;37.496;2023-02-01T10:49:57;97256.38;;;1.60;100.00
69848;BME280;57143;55.940;37.496;2023-02-01T10:52:36;97275.75;;;1.73;100.00
69848;BME280;57143;55.940;37.496;2023-02-01T10:55:29;97275.97;;;1.72;100.00
69848;BME280;57143;55.940;37.496;2023-02-01T10:58:00;97303.66;;;1.53;100.00
69848;BME280;57143;55.940;37.496;2023-02-01T11:00:28;97290.69;;;1.56;100.00
69848;BME280;57143;55.940;37.496;2023-02-01T11:03:00;97289.66;;;1.57;100.00
69848;BME280;57143;55.940;37.496;2023-02-01T11:05:43;97290.09;;;1.54;100.00
69848;BME280;57143;55.940;37.496;2023-02-01T11:08:14;97280.63;;;1.58;100.00
69848;BME280;57143;55.940;37.496;2023-02-01T11:10:44;97295.50;;;1.48;100.00
69848;BME280;57143;55.940;37.496;2023-02-01T11:13:14;97281.63;;;1.57;100.00
69848;BME280;57143;55.940;37.496;2023-02-01T11:15:46;97281.84;;;1.56;100.00
69848;BME280;57143;55.940;37.496;2023-02-01T11:18:18;97283.00;;;1.66;100.00
69848;BME280;57143;55.940;37.496;2023-02-01T11:20:47;97291.53;;;1.57;100.00
69848;BME280;57143;55.940;37.496;2023-02-01T11:23:20;97173.00;;;0.79;100.00
69848;BME280;57143;55.940;37.496;2023-02-01T11:25:49;97292.81;;;1.48;100.00
69848;BME280;57143;55.940;37.496;2023-02-01T11:28:19;97313.88;;;1.56;100.00
69848;BME280;57143;55.940;37.496;2023-02-01T11:30:48;97302.53;;;1.42;100.00
69848;BME280;57143;55.940;37.496;2023-02-01T11:33:17;97246.94;;;1.14;100.00
69848;BME280;57143;55.940;37.496;2023-02-01T11:35:47;97257.28;;;1.29;100.00
69848;BME280;57143;55.940;37.496;2023-02-01T11:38:22;97222.16;;;1.07;100.00
69848;BME280;57143;55.940;37.496;2023-02-01T11:40:51;97286.22;;;1.50;100.00
69848;BME280;57143;55.940;37.496;2023-02-01T11:43:24;97306.41;;;1.64;100.00
69848;BME280;57143;55.940;37.496;2023-02-01T11:45:57;97304.50;;;1.71;100.00
69848;BME280;57143;55.940;37.496;2023-02-01T11:48:27;97276.97;;;1.53;100.00
69848;BME280;57143;55.940;37.496;2023-02-01T11:51:13;97293.13;;;1.58;100.00
69848;BME280;57143;55.940;37.496;2023-02-01T11:54:02;97299.38;;;1.70;100.00
69848;BME280;57143;55.940;37.496;2023-02-01T11:56:35;97309.16;;;1.58;100.00
69848;BME280;57143;55.940;37.496;2023-02-01T11:59:24;97317.53;;;1.61;100.00
69848;BME280;57143;55.940;37.496;2023-02-01T12:02:03;97285.97;;;1.34;100.00
69848;BME280;57143;55.940;37.496;2023-02-01T12:07:51;97298.09;;;1.30;100.00
69848;BME280;57143;55.940;37.496;2023-02-01T12:10:31;97338.88;;;1.43;100.00
69848;BME280;57143;55.940;37.496;2023-02-01T12:13:11;97334.81;;;1.34;100.00
69848;BME280;57143;55.940;37.496;2023-02-01T12:15:51;97219.09;;;0.55;100.00
69848;BME280;57143;55.940;37.496;2023-02-01T12:18:50;97339.44;;;1.21;100.00
69848;BME280;57143;55.940;37.496;2023-02-01T12:21:30;97348.16;;;1.34;100.00
69848;BME280;57143;55.940;37.496;2023-02-01T12:24:24;97345.34;;;1.23;100.00
69848;BME280;57143;55.940;37.496;2023-02-01T12:27:03;97370.47;;;1.15;100.00
69848;BME280;57143;55.940;37.496;2023-02-01T12:29:45;97300.78;;;0.74;100.00
69848;BME280;57143;55.940;37.496;2023-02-01T12:32:27;97302.53;;;0.86;100.00
69848;BME280;57143;55.940;37.496;2023-02-01T12:35:14;97351.63;;;1.10;100.00
69848;BME280;57143;55.940;37.496;2023-02-01T12:37:59;97344.47;;;1.04;100.00
69848;BME280;57143;55.940;37.496;2023-02-01T12:40:43;97346.22;;;1.16;100.00
69848;BME280;57143;55.940;37.496;2023-02-01T12:43:18;97337.63;;;1.14;100.00
69848;BME280;57143;55.940;37.496;2023-02-01T12:45:54;97340.47;;;1.19;100.00
69848;BME280;57143;55.940;37.496;2023-02-01T12:48:28;97320.69;;;1.02;100.00
69848;BME280;57143;55.940;37.496;2023-02-01T12:51:01;97341.56;;;1.12;100.00
69848;BME280;57143;55.940;37.496;2023-02-01T12:53:41;97334.50;;;1.17;100.00
69848;BME280;57143;55.940;37.496;2023-02-01T12:56:15;97334.22;;;1.01;100.00
69848;BME280;57143;55.940;37.496;2023-02-01T12:58:45;97334.06;;;0.96;100.00
69848;BME280;57143;55.940;37.496;2023-02-01T13:01:16;97339.66;;;0.88;100.00
69848;BME280;57143;55.940;37.496;2023-02-01T13:03:53;97340.81;;;0.98;100.00
69848;BME280;57143;55.940;37.496;2023-02-01T13:06:25;97333.00;;;0.97;100.00
69848;BME280;57143;55.940;37.496;2023-02-01T13:08:57;97322.34;;;0.97;100.00
69848;BME280;57143;55.940;37.496;2023-02-01T13:11:31;97336.13;;;0.94;100.00
69848;BME280;57143;55.940;37.496;2023-02-01T13:14:03;97328.50;;;0.97;100.00
69848;BME280;57143;55.940;37.496;2023-02-01T13:16:35;97307.78;;;0.99;100.00
69848;BME280;57143;55.940;37.496;2023-02-01T13:19:10;97306.00;;;0.87;100.00